Time;durP1;ratioP1;P1;durP2;ratioP2;P2;SDS_P1;SDS_P2;PMS_P1;PMS_P2;Temp;Humidity;BMP_temperature;BMP_pressure;BME280_temperature;BME280_humidity;BME280_pressure;Samples;Min_cycle;Max_cycle;Signal;HPM_P1;HPM_P2
2021/05/15 00:02:17;;;;;;;4.95;1.20;;;;;;;11.67;93.82;100183.81;5013640;28;20469;-86
2021/05/15 00:04:43;;;;;;;3.80;1.00;;;;;;;11.68;94.10;100176.59;5025168;28;20025;-87
2021/05/15 00:07:08;;;;;;;1.65;1.10;;;;;;;11.69;94.06;100176.50;5009084;28;20041;-86
2021/05/15 00:09:33;;;;;;;3.67;1.10;;;;;;;11.69;94.11;100172.94;5009504;28;20346;-86
2021/05/15 00:11:59;;;;;;;2.13;1.20;;;;;;;11.69;94.13;100164.88;5023875;28;20080;-86
2021/05/15 00:14:25;;;;;;;3.40;1.10;;;;;;;11.69;93.96;100170.25;5007660;28;20056;-87
2021/05/15 00:16:51;;;;;;;3.05;0.90;;;;;;;11.67;94.05;100166.81;5022404;28;20032;-87
2021/05/15 00:19:16;;;;;;;2.13;1.10;;;;;;;11.57;94.44;100164.00;5023367;28;20033;-87
2021/05/15 00:21:42;;;;;;;1.95;1.20;;;;;;;11.55;94.36;100167.78;5015818;28;20450;-86
2021/05/15 00:24:08;;;;;;;1.55;1.00;;;;;;;11.52;94.48;100163.50;5025454;28;20031;-87
2021/05/15 00:26:33;;;;;;;2.30;1.20;;;;;;;11.50;94.51;100173.50;5026853;28;20032;-86
2021/05/15 00:28:59;;;;;;;5.05;1.08;;;;;;;11.48;94.36;100166.56;5009803;28;20068;-86
2021/05/15 00:31:24;;;;;;;2.08;1.30;;;;;;;11.44;94.32;100165.06;5010954;28;20112;-86
2021/05/15 00:33:50;;;;;;;3.20;1.23;;;;;;;11.38;94.28;100170.91;5014600;28;20034;-85
2021/05/15 00:36:15;;;;;;;1.75;1.20;;;;;;;11.26;94.78;100184.31;5007774;28;20068;-86
2021/05/15 00:38:41;;;;;;;3.47;1.55;;;;;;;11.17;95.23;100176.91;5025001;28;20312;-86
2021/05/15 00:41:06;;;;;;;1.60;1.15;;;;;;;11.09;95.88;100176.66;5017264;28;20037;-85
2021/05/15 00:43:32;;;;;;;1.88;1.17;;;;;;;11.05;96.46;100177.03;5019024;28;20033;-85
2021/05/15 00:45:58;;;;;;;2.40;1.15;;;;;;;10.95;96.80;100175.00;5027620;28;20090;-86
2021/05/15 00:48:23;;;;;;;2.55;1.33;;;;;;;10.89;97.38;100170.09;5006828;28;20042;-86
2021/05/15 00:50:49;;;;;;;2.63;1.17;;;;;;;10.86;97.86;100166.78;4999341;28;20036;-84
2021/05/15 00:53:15;;;;;;;5.28;1.45;;;;;;;10.85;97.90;100165.06;5009781;28;20143;-86
2021/05/15 00:55:41;;;;;;;3.28;1.88;;;;;;;10.83;98.12;100165.19;5041983;28;20120;-86
2021/05/15 00:58:07;;;;;;;5.35;1.83;;;;;;;10.75;97.88;100166.69;5009198;28;20092;-86
2021/05/15 01:00:32;;;;;;;3.13;1.45;;;;;;;10.63;97.62;100172.97;5001495;28;20041;-86
2021/05/15 01:02:59;;;;;;;2.10;1.17;;;;;;;10.53;97.84;100162.94;5007893;28;20025;-86
2021/05/15 01:05:24;;;;;;;3.17;1.13;;;;;;;10.47;98.08;100163.38;5009230;28;20068;-86
2021/05/15 01:07:50;;;;;;;3.58;1.70;;;;;;;10.46;97.74;100156.28;5005465;28;20037;-86
2021/05/15 01:10:17;;;;;;;1.38;1.20;;;;;;;10.50;97.77;100156.91;5009325;28;20386;-87
2021/05/15 01:12:54;;;;;;;5.10;1.40;;;;;;;10.50;97.59;100156.91;5008731;28;20037;-85
2021/05/15 01:15:23;;;;;;;2.42;1.75;;;;;;;10.50;97.72;100157.75;5003392;28;20040;-84
2021/05/15 01:17:56;;;;;;;2.95;1.50;;;;;;;10.51;97.66;100153.25;5007930;28;20034;-86
2021/05/15 01:20:23;;;;;;;4.63;1.83;;;;;;;10.54;97.58;100161.09;5003999;28;20098;-85
2021/05/15 01:22:49;;;;;;;5.57;1.65;;;;;;;10.52;97.63;100154.97;5005098;28;20045;-86
2021/05/15 01:25:16;;;;;;;3.63;1.65;;;;;;;10.52;97.93;100161.19;5000168;28;20045;-86
2021/05/15 01:27:42;;;;;;;1.88;1.42;;;;;;;10.52;98.12;100155.84;5000787;28;20038;-85
2021/05/15 01:30:09;;;;;;;3.30;1.55;;;;;;;10.51;98.52;100148.75;5004946;28;20037;-86
2021/05/15 01:32:36;;;;;;;3.65;1.80;;;;;;;10.51;99.00;100148.75;5008105;28;20083;-84
2021/05/15 01:35:04;;;;;;;2.42;1.65;;;;;;;10.50;99.48;100141.66;5023817;28;20045;-86
2021/05/15 01:37:30;;;;;;;5.38;2.65;;;;;;;10.49;100.00;100145.31;5002430;28;20079;-87
2021/05/15 01:39:56;;;;;;;2.63;1.80;;;;;;;10.46;100.00;100139.31;5003305;28;20033;-86
2021/05/15 01:42:21;;;;;;;2.75;1.90;;;;;;;10.48;100.00;100143.63;5017521;28;20490;-85
2021/05/15 01:44:47;;;;;;;2.28;1.60;;;;;;;10.45;100.00;100135.78;5024855;28;20036;-86
2021/05/15 01:47:12;;;;;;;3.33;1.80;;;;;;;10.34;100.00;100135.72;5022881;28;20049;-85
2021/05/15 01:49:37;;;;;;;1.80;1.55;;;;;;;10.23;100.00;100124.06;5014109;28;20273;-86
2021/05/15 01:52:04;;;;;;;2.63;1.60;;;;;;;10.14;100.00;100123.69;5023359;28;20108;-86
2021/05/15 01:54:30;;;;;;;2.00;1.50;;;;;;;10.13;100.00;100121.97;5021318;28;20448;-87
2021/05/15 01:56:55;;;;;;;3.63;1.83;;;;;;;10.13;100.00;100121.13;5020334;28;20164;-85
2021/05/15 01:59:21;;;;;;;3.35;1.73;;;;;;;10.13;100.00;100116.63;5008108;28;20033;-86
2021/05/15 02:01:46;;;;;;;3.45;1.63;;;;;;;10.15;100.00;100109.34;5019325;28;20392;-86
2021/05/15 02:04:12;;;;;;;5.68;2.17;;;;;;;10.21;100.00;100110.75;5020641;28;20037;-85
2021/05/15 02:06:37;;;;;;;4.50;2.15;;;;;;;10.16;100.00;100104.84;5000770;28;20038;-86
2021/05/15 02:09:03;;;;;;;3.13;2.00;;;;;;;10.13;100.00;100099.66;5007820;28;20044;-85
2021/05/15 02:11:28;;;;;;;7.25;2.33;;;;;;;10.10;100.00;100095.41;5018769;28;20037;-86
2021/05/15 02:13:54;;;;;;;3.95;2.00;;;;;;;10.08;100.00;100099.16;5016753;28;20156;-85
2021/05/15 02:16:19;;;;;;;2.17;1.67;;;;;;;10.09;100.00;100092.81;5007117;28;20033;-86
2021/05/15 02:18:48;;;;;;;3.55;2.35;;;;;;;10.10;100.00;100095.41;5012167;28;20425;-85
2021/05/15 02:21:14;;;;;;;3.05;2.30;;;;;;;10.13;100.00;100094.31;5005211;28;20478;-86
2021/05/15 02:23:40;;;;;;;4.47;2.88;;;;;;;10.18;100.00;100097.56;5013013;28;20040;-84
2021/05/15 02:26:05;;;;;;;5.18;3.38;;;;;;;10.20;100.00;100095.63;5019332;28;20579;-85
2021/05/15 02:28:31;;;;;;;7.40;3.10;;;;;;;10.22;100.00;100099.06;5011652;28;20038;-85
2021/05/15 02:30:57;;;;;;;7.88;3.30;;;;;;;10.23;100.00;100089.19;5022044;28;20124;-85
2021/05/15 02:33:22;;;;;;;4.93;3.17;;;;;;;10.23;100.00;100087.38;5022068;28;20136;-85
2021/05/15 02:35:49;;;;;;;6.65;3.72;;;;;;;10.27;100.00;100086.16;5023788;28;20025;-86
2021/05/15 02:38:16;;;;;;;7.65;4.05;;;;;;;10.25;100.00;100092.59;5023118;28;20450;-85
2021/05/15 02:40:42;;;;;;;7.90;4.30;;;;;;;10.27;100.00;100085.31;5020816;28;20102;-86
2021/05/15 02:43:08;;;;;;;5.20;3.70;;;;;;;10.29;100.00;100084.22;5019127;28;20044;-85
2021/05/15 02:45:35;;;;;;;5.60;3.90;;;;;;;10.32;100.00;100088.50;5005185;28;20367;-85
2021/05/15 02:48:00;;;;;;;10.38;5.00;;;;;;;10.33;100.00;100085.72;5020720;28;20120;-86
2021/05/15 02:50:26;;;;;;;8.23;4.57;;;;;;;10.36;100.00;100080.13;5016142;28;20520;-86
2021/05/15 02:52:53;;;;;;;7.50;4.70;;;;;;;10.41;100.00;100082.47;5024141;28;20651;-86
2021/05/15 02:55:21;;;;;;;7.72;4.70;;;;;;;10.43;100.00;100081.38;5007338;28;20038;-86
2021/05/15 02:57:48;;;;;;;6.28;4.60;;;;;;;10.47;100.00;100080.19;5006995;28;20029;-86
2021/05/15 03:00:17;;;;;;;7.60;4.93;;;;;;;10.49;100.00;100082.78;5006678;28;20384;-86
2021/05/15 03:02:42;;;;;;;7.90;4.82;;;;;;;10.52;100.00;100077.16;5002201;28;20363;-85
2021/05/15 03:05:11;;;;;;;7.15;5.13;;;;;;;10.52;100.00;100079.84;5018191;28;20037;-86
2021/05/15 03:07:36;;;;;;;8.38;5.30;;;;;;;10.51;100.00;100073.63;4999608;28;20037;-86
2021/05/15 03:10:05;;;;;;;10.40;4.97;;;;;;;10.52;100.00;100075.34;4998654;28;20040;-86
2021/05/15 03:12:30;;;;;;;10.68;5.32;;;;;;;10.52;100.00;100069.97;4996651;28;20044;-86
2021/05/15 03:14:56;;;;;;;9.60;5.03;;;;;;;10.51;100.00;100068.25;5010395;28;20034;-86
2021/05/15 03:17:21;;;;;;;9.20;5.18;;;;;;;10.52;100.00;100069.13;5017755;28;20413;-86
2021/05/15 03:19:48;;;;;;;7.25;4.78;;;;;;;10.54;100.00;100070.72;5022391;28;20287;-86
2021/05/15 03:22:13;;;;;;;8.75;4.72;;;;;;;10.58;100.00;100078.53;5029020;28;20033;-85
2021/05/15 03:24:39;;;;;;;15.10;5.80;;;;;;;10.61;100.00;100072.94;5003239;28;20083;-86
2021/05/15 03:27:04;;;;;;;8.75;6.20;;;;;;;10.60;100.00;100076.59;5020159;28;20513;-86
2021/05/15 03:29:30;;;;;;;12.50;6.18;;;;;;;10.61;100.00;100072.94;5017839;28;20398;-86
2021/05/15 03:31:57;;;;;;;12.65;6.80;;;;;;;10.61;100.00;100072.94;5020615;28;20060;-85
2021/05/15 03:34:22;;;;;;;10.88;6.10;;;;;;;10.61;100.00;100068.44;5026324;28;20094;-86
2021/05/15 03:36:48;;;;;;;14.45;6.03;;;;;;;10.63;100.00;100071.00;5026996;28;20029;-85
2021/05/15 03:39:19;;;;;;;9.82;5.93;;;;;;;10.64;100.00;100070.03;5005070;28;20732;-85
2021/05/15 03:41:48;;;;;;;13.38;6.57;;;;;;;10.64;100.00;100067.34;5022601;28;20029;-86
2021/05/15 03:44:14;;;;;;;8.80;6.38;;;;;;;10.66;100.00;100070.78;5022524;28;20115;-86
2021/05/15 03:46:40;;;;;;;8.82;5.75;;;;;;;10.65;100.00;100066.38;5014301;28;20026;-84
2021/05/15 03:49:06;;;;;;;8.35;5.57;;;;;;;10.66;100.00;100071.63;5024923;28;20049;-86
2021/05/15 03:51:33;;;;;;;13.27;6.32;;;;;;;10.68;100.00;100072.34;5009443;28;20132;-86
2021/05/15 03:53:58;;;;;;;10.18;5.40;;;;;;;10.69;100.00;100073.22;5007984;28;20048;-85
2021/05/15 03:56:24;;;;;;;8.60;5.47;;;;;;;10.72;100.00;100070.31;4996829;28;20036;-85
2021/05/15 03:58:49;;;;;;;9.10;4.65;;;;;;;10.70;100.00;100067.72;5016750;28;20034;-85
2021/05/15 04:01:15;;;;;;;6.05;4.50;;;;;;;10.69;100.00;100073.22;5008390;28;20030;-85
2021/05/15 04:03:40;;;;;;;8.35;4.15;;;;;;;10.71;100.00;100066.78;5022205;28;20401;-85
2021/05/15 04:06:05;;;;;;;6.47;4.00;;;;;;;10.71;100.00;100071.28;5009403;28;20547;-85
2021/05/15 04:08:31;;;;;;;7.28;4.07;;;;;;;10.68;100.00;100060.75;5007661;28;20302;-84
2021/05/15 04:10:56;;;;;;;5.72;3.70;;;;;;;10.73;100.00;100066.66;5010295;28;20044;-85
2021/05/15 04:13:35;;;;;;;7.30;4.30;;;;;;;10.81;100.00;100064.22;5002654;28;20053;-86
2021/05/15 04:18:28;;;;;;;5.07;3.83;;;;;;;10.73;100.00;100062.16;5027082;28;20415;-85
2021/05/15 04:20:55;;;;;;;5.80;3.67;;;;;;;10.75;100.00;100072.75;5010122;28;20777;-85
2021/05/15 04:23:21;;;;;;;4.53;3.58;;;;;;;10.78;100.00;100075.22;5005504;28;20052;-85
2021/05/15 04:25:47;;;;;;;9.43;4.78;;;;;;;10.85;100.00;100076.47;5022332;28;20041;-85
2021/05/15 04:28:13;;;;;;;6.85;4.20;;;;;;;10.82;100.00;100071.31;5023526;28;20517;-85
2021/05/15 04:30:39;;;;;;;5.63;4.63;;;;;;;10.79;100.00;100076.94;5014976;28;20033;-86
2021/05/15 04:33:04;;;;;;;6.60;4.47;;;;;;;10.78;100.00;100075.22;5008849;28;20040;-85
2021/05/15 04:35:32;;;;;;;6.22;3.92;;;;;;;10.87;100.00;100072.69;5021535;28;20022;-86
2021/05/15 04:38:06;;;;;;;4.85;3.97;;;;;;;10.90;100.00;100074.28;5028378;28;20489;-85
2021/05/15 04:40:33;;;;;;;5.15;3.95;;;;;;;10.82;100.00;100079.38;5014330;28;20029;-86
2021/05/15 04:42:59;;;;;;;5.75;4.18;;;;;;;10.86;100.00;100073.66;5003831;28;20041;-86
2021/05/15 04:45:31;;;;;;;5.63;3.95;;;;;;;10.84;100.00;100069.38;5025135;28;20505;-86
2021/05/15 04:47:57;;;;;;;10.65;4.53;;;;;;;10.92;100.00;100069.66;5010917;28;20047;-86
2021/05/15 04:50:23;;;;;;;7.53;3.90;;;;;;;10.95;100.00;100072.09;5012361;28;20523;-86
2021/05/15 04:52:48;;;;;;;5.95;3.83;;;;;;;10.91;100.00;100070.63;5013045;28;20038;-84
2021/05/15 04:55:14;;;;;;;5.50;4.10;;;;;;;10.87;100.00;100069.13;5010896;28;20038;-85
2021/05/15 04:57:39;;;;;;;8.50;4.72;;;;;;;10.91;100.00;100076.00;5021335;28;20033;-85
2021/05/15 05:00:05;;;;;;;7.03;4.25;;;;;;;10.90;100.00;100076.97;5014146;28;20037;-85
2021/05/15 05:02:31;;;;;;;8.25;4.45;;;;;;;10.93;100.00;100074.03;5008960;28;20311;-85
2021/05/15 05:04:57;;;;;;;6.47;4.78;;;;;;;11.04;100.00;100068.72;5022482;28;20102;-86
2021/05/15 05:07:22;;;;;;;6.38;4.43;;;;;;;11.00;100.00;100075.28;5007189;28;20493;-86
2021/05/15 05:09:47;;;;;;;8.77;4.78;;;;;;;11.15;100.00;100068.75;5024205;28;20124;-85
2021/05/15 05:12:13;;;;;;;9.68;5.18;;;;;;;11.18;100.00;100073.88;5027036;28;20128;-86
2021/05/15 05:14:38;;;;;;;9.32;4.93;;;;;;;11.15;100.00;100076.81;5020380;28;20038;-86
2021/05/15 05:17:06;;;;;;;11.52;6.18;;;;;;;11.09;100.00;100073.75;5014224;28;20601;-85
2021/05/15 05:19:32;;;;;;;8.43;5.63;;;;;;;11.07;100.00;100071.16;5023517;28;20430;-86
2021/05/15 05:22:00;;;;;;;9.93;6.35;;;;;;;11.09;100.00;100069.22;5008039;28;20486;-86
2021/05/15 05:24:25;;;;;;;9.07;5.70;;;;;;;11.12;100.00;100063.59;5001431;28;20498;-85
2021/05/15 05:26:51;;;;;;;10.70;5.78;;;;;;;11.16;100.00;100064.25;5014859;28;20257;-86
2021/05/15 05:29:16;;;;;;;12.55;7.07;;;;;;;11.22;100.00;100063.78;5007172;28;20046;-86
2021/05/15 05:31:44;;;;;;;11.80;6.82;;;;;;;11.22;100.00;100070.00;5023561;28;20033;-86
2021/05/15 05:34:10;;;;;;;12.95;6.90;;;;;;;11.35;100.00;100062.72;5014131;28;20616;-83
2021/05/15 05:36:36;;;;;;;12.82;6.82;;;;;;;11.28;100.00;100058.78;5005993;28;20037;-86
2021/05/15 05:39:08;;;;;;;10.88;7.03;;;;;;;11.33;100.00;100061.97;5010301;28;20053;-86
2021/05/15 05:41:33;;;;;;;15.88;8.40;;;;;;;11.34;100.00;100063.69;4996924;28;20033;-86
2021/05/15 05:43:59;;;;;;;14.43;7.82;;;;;;;11.29;100.00;100059.66;5003162;28;20268;-86
2021/05/15 05:46:24;;;;;;;18.00;8.88;;;;;;;11.33;100.00;100061.97;5006241;28;20164;-86
2021/05/15 05:48:49;;;;;;;14.07;8.18;;;;;;;11.33;100.00;100061.09;5022889;28;20040;-85
2021/05/15 05:51:15;;;;;;;20.27;10.60;;;;;;;11.56;100.00;100061.97;5010704;28;20411;-86
2021/05/15 05:53:40;;;;;;;18.35;9.65;;;;;;;11.40;100.00;100061.47;5007266;28;20375;-85
2021/05/15 05:56:06;;;;;;;21.23;9.65;;;;;;;11.50;100.00;100054.41;5007642;28;20029;-86
2021/05/15 05:58:32;;;;;;;37.55;11.23;;;;;;;11.53;100.00;100056.88;5019493;28;20410;-86
2021/05/15 06:00:58;;;;;;;22.08;10.27;;;;;;;11.63;100.00;100049.78;5018696;28;20532;-86
2021/05/15 06:03:24;;;;;;;24.27;10.68;;;;;;;11.62;100.00;100048.06;4998585;28;20034;-85
2021/05/15 06:05:49;;;;;;;22.58;11.65;;;;;;;11.54;100.00;100055.91;5021825;28;20378;-86
2021/05/15 06:08:15;;;;;;;22.92;11.25;;;;;;;11.60;100.00;100058.91;5011728;28;20025;-86
2021/05/15 06:10:40;;;;;;;20.75;11.15;;;;;;;11.62;100.00;100056.13;5023517;28;20029;-86
2021/05/15 06:13:07;;;;;;;22.77;11.52;;;;;;;11.58;100.00;100055.53;5016669;28;20132;-87
2021/05/15 06:15:33;;;;;;;18.58;10.77;;;;;;;11.70;100.00;100048.31;5003095;28;20026;-85
2021/05/15 06:17:59;;;;;;;15.95;9.25;;;;;;;11.74;100.00;100052.50;5015961;28;20055;-84
2021/05/15 06:20:24;;;;;;;17.13;9.45;;;;;;;11.81;100.00;100056.41;5022287;28;20030;-87
2021/05/15 06:22:50;;;;;;;13.82;8.65;;;;;;;11.73;100.00;100056.13;5021047;28;20040;-86
2021/05/15 06:25:16;;;;;;;14.32;8.07;;;;;;;11.77;100.00;100057.63;5024564;28;20051;-84
2021/05/15 06:27:41;;;;;;;12.10;7.93;;;;;;;11.72;100.00;100057.97;5016477;28;20043;-85
2021/05/15 06:30:08;;;;;;;13.30;8.30;;;;;;;11.82;100.00;100058.13;5024557;28;20039;-87
2021/05/15 06:32:33;;;;;;;12.20;8.35;;;;;;;11.86;100.00;100054.19;5017115;28;20339;-86
2021/05/15 06:35:00;;;;;;;13.02;7.95;;;;;;;11.75;100.00;100056.91;5018495;28;20102;-87
2021/05/15 06:37:25;;;;;;;12.20;7.68;;;;;;;11.81;100.00;100056.41;5019058;28;20029;-87
2021/05/15 06:39:50;;;;;;;12.57;8.00;;;;;;;11.82;100.00;100052.75;5018955;28;20040;-86
2021/05/15 06:42:16;;;;;;;11.52;7.57;;;;;;;11.94;100.00;100051.75;5010005;28;20053;-87
2021/05/15 06:44:42;;;;;;;13.68;9.15;;;;;;;11.92;100.00;100053.69;5006829;28;20025;-88
2021/05/15 06:47:07;;;;;;;13.20;8.40;;;;;;;12.05;100.00;100058.94;5021732;28;20481;-86
2021/05/15 06:49:33;;;;;;;12.32;8.30;;;;;;;11.93;100.00;100060.81;5024809;28;20410;-86
2021/05/15 06:51:58;;;;;;;11.30;8.15;;;;;;;12.08;100.00;100062.25;5017045;28;20045;-86
2021/05/15 06:54:24;;;;;;;12.73;7.85;;;;;;;12.14;100.00;100064.47;5021874;28;20029;-87
2021/05/15 06:56:50;;;;;;;12.02;7.63;;;;;;;12.11;100.00;100067.38;5021273;28;20444;-86
2021/05/15 06:59:17;;;;;;;12.63;7.63;;;;;;;12.05;100.00;100065.19;5011467;28;20527;-87
2021/05/15 07:01:42;;;;;;;20.48;11.23;;;;;;;11.99;100.00;100063.00;5024546;28;20843;-87
2021/05/15 07:04:08;;;;;;;10.93;6.88;;;;;;;12.08;100.00;100064.09;5028368;28;20037;-87
2021/05/15 07:06:33;;;;;;;11.93;6.53;;;;;;;12.16;100.00;100065.16;5020585;28;20048;-86
2021/05/15 07:08:58;;;;;;;9.40;6.32;;;;;;;12.10;100.00;100057.59;5009068;28;20129;-86
2021/05/15 07:11:24;;;;;;;10.88;6.97;;;;;;;12.16;100.00;100062.47;5009967;28;20033;-87
2021/05/15 07:13:49;;;;;;;8.95;5.97;;;;;;;12.35;100.00;100060.97;5021474;28;20081;-87
2021/05/15 07:16:15;;;;;;;8.70;5.53;;;;;;;12.45;99.74;100056.56;5012770;28;20033;-87
2021/05/15 07:18:40;;;;;;;5.13;3.92;;;;;;;12.43;97.30;100055.81;5017677;28;20109;-87
2021/05/15 07:21:06;;;;;;;6.20;3.95;;;;;;;12.53;94.54;100054.94;5005781;28;20140;-86
2021/05/15 07:23:31;;;;;;;6.78;4.63;;;;;;;12.51;94.69;100056.06;5011910;28;20636;-87
2021/05/15 07:25:57;;;;;;;6.18;3.83;;;;;;;12.57;94.26;100050.16;5017510;28;20139;-87
2021/05/15 07:28:24;;;;;;;5.45;3.55;;;;;;;12.66;94.94;100049.38;5007202;28;20112;-87
2021/05/15 07:30:49;;;;;;;7.45;4.90;;;;;;;12.79;93.20;100044.69;5023938;28;20111;-87
2021/05/15 07:33:15;;;;;;;9.50;5.43;;;;;;;12.80;94.12;100045.53;5009959;28;20482;-87
2021/05/15 07:35:40;;;;;;;10.32;6.05;;;;;;;12.79;94.22;100044.69;5008021;28;20437;-87
2021/05/15 07:38:06;;;;;;;8.55;5.63;;;;;;;12.86;93.57;100047.72;5009157;28;20548;-86
2021/05/15 07:40:32;;;;;;;9.32;6.05;;;;;;;13.03;92.99;100040.88;5015500;28;20075;-88
2021/05/15 07:42:57;;;;;;;10.82;6.38;;;;;;;13.04;92.79;100040.75;4997727;28;20448;-87
2021/05/15 07:45:22;;;;;;;11.50;7.05;;;;;;;13.17;92.38;100046.00;5009647;28;20053;-86
2021/05/15 07:47:48;;;;;;;13.95;6.70;;;;;;;13.17;91.66;100051.38;5025650;28;20130;-87
2021/05/15 07:50:13;;;;;;;12.75;7.55;;;;;;;13.23;92.83;100045.47;5028260;28;20044;-88
2021/05/15 07:52:39;;;;;;;13.30;8.20;;;;;;;13.15;93.73;100045.25;5025827;28;20030;-87
2021/05/15 07:55:06;;;;;;;11.65;7.47;;;;;;;13.29;94.64;100042.25;5009840;28;20635;-82
2021/05/15 07:57:31;;;;;;;12.52;7.43;;;;;;;13.23;95.94;100037.38;5007007;28;20174;-83
2021/05/15 07:59:57;;;;;;;12.35;7.22;;;;;;;13.38;93.37;100036.06;5010486;28;20124;-84
2021/05/15 08:02:27;;;;;;;12.80;7.55;;;;;;;13.50;93.94;100039.53;5013620;28;20400;-83
2021/05/15 08:04:52;;;;;;;10.65;7.05;;;;;;;13.55;90.78;100035.44;5014414;28;20033;-85
2021/05/15 08:07:17;;;;;;;12.98;8.07;;;;;;;13.53;91.46;100037.41;5018918;28;20030;-85
2021/05/15 08:09:43;;;;;;;13.45;8.43;;;;;;;13.49;92.37;100037.81;5023296;28;20041;-85
2021/05/15 08:12:08;;;;;;;14.77;8.23;;;;;;;13.54;93.54;100044.53;5026034;28;20353;-85
2021/05/15 08:14:34;;;;;;;13.13;8.32;;;;;;;13.59;92.53;100039.56;5020675;28;20022;-84
2021/05/15 08:16:59;;;;;;;19.20;9.23;;;;;;;13.74;91.79;100045.47;5012882;28;20117;-86
2021/05/15 08:19:24;;;;;;;15.35;9.80;;;;;;;13.70;92.34;100047.56;5006561;28;20052;-84
2021/05/15 08:21:50;;;;;;;15.98;10.50;;;;;;;13.87;90.97;100037.16;5018044;28;20037;-84
2021/05/15 08:24:15;;;;;;;19.13;9.98;;;;;;;14.10;90.46;100044.03;5029891;28;20033;-85
2021/05/15 08:26:43;;;;;;;14.38;10.13;;;;;;;14.23;87.32;100039.25;5000797;28;20075;-87
2021/05/15 08:29:12;;;;;;;15.95;10.63;;;;;;;14.27;87.72;100037.97;5004793;28;20068;-87
2021/05/15 08:31:37;;;;;;;15.82;10.00;;;;;;;14.32;87.52;100033.00;5024393;28;20024;-87
2021/05/15 08:34:03;;;;;;;15.60;11.10;;;;;;;14.47;87.42;100030.81;5026485;28;20038;-87
2021/05/15 08:36:28;;;;;;;15.23;10.20;;;;;;;14.47;86.88;100030.81;5022373;28;20048;-87
2021/05/15 08:38:55;;;;;;;14.75;9.23;;;;;;;14.46;86.12;100029.94;5022622;28;20518;-86
2021/05/15 08:41:21;;;;;;;15.57;8.93;;;;;;;14.41;86.13;100032.22;5022745;28;20302;-85
2021/05/15 08:43:48;;;;;;;13.63;8.32;;;;;;;14.60;85.87;100033.25;5023546;28;20449;-85
2021/05/15 08:46:14;;;;;;;14.82;8.30;;;;;;;14.71;85.84;100016.88;4994910;28;20034;-85
2021/05/15 08:48:42;;;;;;;16.75;9.00;;;;;;;14.90;83.69;100017.75;5025797;28;20037;-86
2021/05/15 08:51:08;;;;;;;11.80;8.25;;;;;;;15.10;81.09;100015.88;5025011;28;20041;-86
2021/05/15 08:53:34;;;;;;;12.73;7.85;;;;;;;15.16;79.23;100015.31;5022674;28;20030;-87
2021/05/15 08:56:00;;;;;;;10.18;7.50;;;;;;;15.16;76.85;100012.59;5028938;28;20552;-86
2021/05/15 08:58:25;;;;;;;10.82;7.30;;;;;;;15.33;78.11;100009.13;5008556;28;20053;-87
2021/05/15 09:00:51;;;;;;;10.75;7.50;;;;;;;15.84;72.40;100013.28;5010457;28;20040;-87
2021/05/15 09:03:18;;;;;;;9.77;6.72;;;;;;;16.39;71.52;100010.53;5010121;28;20041;-87
2021/05/15 09:05:50;;;;;;;10.18;6.85;;;;;;;16.72;70.75;100014.47;5025710;28;20029;-86
2021/05/15 09:08:17;;;;;;;10.85;6.43;;;;;;;17.18;70.28;100005.19;5020286;28;20040;-86
2021/05/15 09:10:45;;;;;;;9.40;6.28;;;;;;;17.60;66.36;100005.28;5003326;28;20483;-85
2021/05/15 09:13:18;;;;;;;8.18;5.32;;;;;;;18.06;61.78;99999.44;5004524;28;20030;-86
2021/05/15 09:15:46;;;;;;;11.68;6.22;;;;;;;17.64;61.69;100004.84;5018482;28;20560;-87
2021/05/15 09:18:17;;;;;;;9.93;6.63;;;;;;;17.33;64.11;99996.31;5005972;28;20037;-87
2021/05/15 09:20:44;;;;;;;8.32;6.00;;;;;;;16.93;67.16;99990.59;5024451;28;20034;-87
2021/05/15 09:23:15;;;;;;;7.40;5.07;;;;;;;16.59;68.30;99990.44;5008746;28;20071;-86
2021/05/15 09:25:42;;;;;;;8.85;5.30;;;;;;;16.60;69.50;99989.47;5017670;28;20735;-87
2021/05/15 09:28:07;;;;;;;7.13;5.20;;;;;;;16.37;70.40;99971.91;5017735;28;20075;-87
2021/05/15 09:30:33;;;;;;;6.55;5.20;;;;;;;16.32;68.25;99972.38;5020773;28;20052;-88
2021/05/15 09:33:10;;;;;;;8.65;5.68;;;;;;;16.68;68.01;99959.72;5019434;28;20489;-87
2021/05/15 09:35:35;;;;;;;7.07;4.47;;;;;;;16.71;68.96;99959.41;5015540;28;20072;-86
2021/05/15 09:38:01;;;;;;;7.40;4.68;;;;;;;16.80;69.78;99961.16;5017908;28;20067;-87
2021/05/15 09:40:28;;;;;;;8.73;5.05;;;;;;;16.90;68.81;99958.38;5005693;28;20033;-87
2021/05/15 09:42:55;;;;;;;6.43;4.57;;;;;;;16.90;62.68;99959.25;5020613;28;20034;-87
2021/05/15 09:45:23;;;;;;;9.07;5.22;;;;;;;16.65;61.91;99946.50;5000365;28;20102;-87
2021/05/15 09:48:34;;;;;;;7.00;4.43;;;;;;;16.49;65.74;99944.44;5008579;28;20513;-86
2021/05/15 09:51:10;;;;;;;9.27;4.53;;;;;;;16.65;68.11;99938.34;5016261;28;20037;-87
2021/05/15 09:53:36;;;;;;;5.57;4.28;;;;;;;16.64;68.30;99943.94;5012616;28;20434;-87
2021/05/15 09:56:01;;;;;;;7.60;4.80;;;;;;;16.56;69.51;99933.81;5024723;28;20059;-87
2021/05/15 09:58:27;;;;;;;7.28;4.72;;;;;;;16.65;68.26;99940.22;5022358;28;20038;-86
2021/05/15 10:00:54;;;;;;;7.82;4.53;;;;;;;16.47;68.89;99940.19;5021330;28;20132;-86
2021/05/15 10:03:25;;;;;;;7.35;4.05;;;;;;;16.55;67.04;99941.09;5022090;28;20061;-87
2021/05/15 10:06:07;;;;;;;7.82;3.95;;;;;;;16.34;66.63;99945.16;5000722;28;20064;-87
2021/05/15 10:08:35;;;;;;;5.15;3.72;;;;;;;16.19;67.30;99963.75;5020407;28;20029;-87
2021/05/15 10:11:03;;;;;;;12.32;1.52;;;;;;;15.64;69.11;99960.22;5015060;28;20065;-85
2021/05/15 10:13:30;;;;;;;3.10;1.20;;;;;;;15.23;74.59;99953.41;5023017;28;20043;-84
2021/05/15 10:15:55;;;;;;;7.25;1.77;;;;;;;15.04;78.47;99948.88;5016477;28;20052;-84
2021/05/15 10:18:21;;;;;;;3.10;1.02;;;;;;;14.91;79.62;99948.34;5023520;28;20039;-84
2021/05/15 10:20:47;;;;;;;6.60;1.63;;;;;;;14.70;82.59;99942.25;5032193;28;20033;-85
2021/05/15 10:23:30;;;;;;;2.22;1.13;;;;;;;14.73;84.60;99944.69;5016267;28;20108;-84
2021/05/15 10:26:28;;;;;;;2.63;1.33;;;;;;;14.84;86.35;99939.97;5016729;28;20037;-85
2021/05/15 10:29:04;;;;;;;2.92;1.52;;;;;;;14.96;86.16;99946.91;4976445;28;20107;-85
2021/05/15 10:31:38;;;;;;;2.95;1.77;;;;;;;15.11;85.33;99939.19;5006872;28;20037;-86
2021/05/15 10:34:04;;;;;;;2.75;1.98;;;;;;;15.27;86.30;99938.56;5023410;28;20048;-86
2021/05/15 10:36:29;;;;;;;4.13;2.45;;;;;;;15.57;87.89;99934.78;5016059;28;20033;-85
2021/05/15 10:38:55;;;;;;;4.47;2.28;;;;;;;15.97;87.89;99926.31;5009137;28;20040;-85
2021/05/15 10:41:25;;;;;;;4.13;2.08;;;;;;;16.18;87.79;99925.00;4998900;28;20068;-86
2021/05/15 10:43:50;;;;;;;4.43;2.60;;;;;;;16.47;85.31;99919.38;5014022;28;20033;-86
2021/05/15 10:46:24;;;;;;;5.45;2.55;;;;;;;16.57;84.19;99914.72;5017743;28;20060;-86
2021/05/15 10:48:54;;;;;;;4.53;2.92;;;;;;;16.72;82.04;99912.34;5021121;28;20056;-86
2021/05/15 10:51:34;;;;;;;4.85;3.08;;;;;;;16.68;82.10;99910.09;5003447;28;20072;-86
2021/05/15 10:54:00;;;;;;;8.55;2.88;;;;;;;16.42;81.23;99915.41;5006901;28;20037;-85
2021/05/15 10:56:31;;;;;;;9.88;3.33;;;;;;;16.24;81.16;99917.28;5021530;28;20033;-85
2021/05/15 10:59:02;;;;;;;7.82;3.95;;;;;;;16.09;81.64;99898.88;5022700;28;20360;-88
2021/05/15 11:01:30;;;;;;;7.95;3.60;;;;;;;15.87;84.84;99899.28;5022373;28;20038;-86
2021/05/15 11:03:58;;;;;;;8.73;3.40;;;;;;;15.85;85.50;99895.91;5006729;28;20642;-86
2021/05/15 11:06:28;;;;;;;6.00;3.50;;;;;;;15.87;88.01;99891.16;5021592;28;20029;-86
2021/05/15 11:09:03;;;;;;;7.28;3.20;;;;;;;15.99;88.79;99892.66;5018226;28;20124;-85
2021/05/15 11:12:03;;;;;;;5.72;2.85;;;;;;;16.15;86.49;99890.13;5016889;28;20486;-86
2021/05/15 11:14:34;;;;;;;6.85;3.00;;;;;;;16.41;84.06;99886.66;5004650;28;20041;-86
2021/05/15 11:17:16;;;;;;;6.45;3.03;;;;;;;16.57;80.12;99876.78;5001166;28;20322;-85
2021/05/15 11:20:08;;;;;;;4.53;3.25;;;;;;;16.70;86.03;99875.56;5018586;28;20695;-86
2021/05/15 11:22:38;;;;;;;6.57;4.05;;;;;;;16.54;81.75;99871.66;5019684;28;20409;-86